Time;durP1;ratioP1;P1;durP2;ratioP2;P2;SDS_P1;SDS_P2;PMS_P1;PMS_P2;Temp;Humidity;BMP_temperature;BMP_pressure;BME280_temperature;BME280_humidity;BME280_pressure;Samples;Min_cycle;Max_cycle;Signal;HPM_P1;HPM_P2
2022/08/16 00:01:22;;;;;;;0.65;0.20;;;22.70;79.20;;;;;;4907116;29;20044;-75
2022/08/16 00:03:50;;;;;;;0.50;0.25;;;22.80;78.50;;;;;;4907888;29;20028;-75
2022/08/16 00:06:17;;;;;;;1.33;0.10;;;22.80;78.50;;;;;;4897762;29;20514;-76
2022/08/16 00:08:45;;;;;;;0.10;0.10;;;22.80;79.60;;;;;;4903951;29;22122;-76
2022/08/16 00:11:13;;;;;;;0.28;0.28;;;23.00;78.90;;;;;;4898833;29;20063;-75
2022/08/16 00:13:41;;;;;;;0.15;0.05;;;23.30;77.90;;;;;;4902899;29;20055;-77
2022/08/16 00:16:09;;;;;;;0.05;0.00;;;23.10;75.70;;;;;;4905154;29;20036;-76
2022/08/16 00:18:36;;;;;;;0.25;0.20;;;22.90;76.90;;;;;;4908070;29;20028;-75
2022/08/16 00:21:04;;;;;;;2.33;0.20;;;23.10;77.00;;;;;;4906196;29;20491;-75
2022/08/16 00:23:32;;;;;;;0.20;0.00;;;23.30;77.00;;;;;;4906234;29;20028;-76
2022/08/16 00:25:59;;;;;;;0.22;0.10;;;23.40;76.60;;;;;;4899398;29;20115;-79
2022/08/16 00:28:27;;;;;;;0.20;0.15;;;23.50;77.40;;;;;;4912986;29;20040;-77
2022/08/16 00:30:54;;;;;;;0.25;0.10;;;23.90;76.40;;;;;;4908938;29;20084;-78
2022/08/16 00:33:22;;;;;;;0.55;0.13;;;24.20;76.80;;;;;;4908873;29;20042;-77
2022/08/16 00:35:49;;;;;;;6.47;1.20;;;24.20;75.40;;;;;;4885757;29;20024;-75
2022/08/16 00:38:17;;;;;;;0.28;0.10;;;23.90;75.60;;;;;;4905254;29;20040;-75
2022/08/16 00:40:48;;;;;;;0.32;0.10;;;23.70;76.90;;;;;;4906625;29;20051;-78
2022/08/16 00:43:23;;;;;;;0.20;0.10;;;23.50;76.20;;;;;;4905306;29;20047;-76
2022/08/16 00:45:59;;;;;;;0.80;0.28;;;23.80;78.60;;;;;;4896569;29;20032;-74
2022/08/16 00:48:27;;;;;;;0.30;0.10;;;24.00;76.10;;;;;;4900671;29;20036;-77
2022/08/16 00:50:55;;;;;;;0.35;0.00;;;24.10;75.80;;;;;;4903332;29;20024;-77
2022/08/16 00:53:23;;;;;;;0.28;0.10;;;23.90;75.20;;;;;;4901130;29;20092;-76
2022/08/16 00:55:54;;;;;;;0.20;0.10;;;23.40;76.50;;;;;;4914697;29;20168;-77
2022/08/16 00:58:25;;;;;;;0.10;0.10;;;23.50;76.40;;;;;;4901715;29;20521;-75
2022/08/16 01:00:53;;;;;;;0.20;0.10;;;23.10;76.30;;;;;;4901303;29;20054;-76
2022/08/16 01:03:24;;;;;;;1.17;0.20;;;22.80;78.60;;;;;;4902525;29;20032;-76
2022/08/16 01:05:51;;;;;;;2.03;0.10;;;23.50;79.90;;;;;;4897961;29;20035;-79
2022/08/16 01:08:22;;;;;;;2.05;0.10;;;24.40;77.60;;;;;;4906553;29;20033;-78
2022/08/16 01:10:49;;;;;;;0.10;0.00;;;24.90;75.90;;;;;;4908408;29;20111;-77
2022/08/16 01:13:26;;;;;;;0.00;0.00;;;25.60;77.70;;;;;;4904448;29;20040;-80
2022/08/16 01:16:19;;;;;;;0.08;0.00;;;25.50;72.70;;;;;;4904680;29;20024;-79
2022/08/16 01:19:01;;;;;;;0.43;0.30;;;25.40;73.20;;;;;;4895179;29;20036;-78
2022/08/16 01:21:37;;;;;;;0.25;0.00;;;25.10;75.80;;;;;;4900178;29;20044;-78
2022/08/16 01:24:20;;;;;;;0.28;0.10;;;25.20;75.80;;;;;;4900195;29;20046;-77
2022/08/16 01:26:49;;;;;;;0.10;0.00;;;25.60;74.60;;;;;;4900893;29;20071;-79
2022/08/16 01:29:26;;;;;;;0.00;0.00;;;25.90;77.20;;;;;;4907352;29;20032;-79
2022/08/16 01:31:54;;;;;;;0.13;0.00;;;25.80;72.40;;;;;;4905089;29;20428;-78
2022/08/16 01:34:22;;;;;;;0.00;0.00;;;25.70;74.50;;;;;;4922598;29;20041;-78
2022/08/16 01:37:01;;;;;;;0.10;0.00;;;26.00;72.60;;;;;;4911185;29;20029;-78
2022/08/16 01:39:29;;;;;;;0.10;0.00;;;26.40;73.00;;;;;;4914396;29;20044;-79
2022/08/16 01:41:56;;;;;;;0.20;0.00;;;26.70;72.40;;;;;;4909351;29;20498;-82
2022/08/16 01:44:24;;;;;;;0.00;0.00;;;26.10;70.90;;;;;;4915651;29;20504;-78
2022/08/16 01:46:52;;;;;;;0.30;0.00;;;26.30;71.70;;;;;;4911786;29;20387;-78
2022/08/16 01:49:32;;;;;;;0.10;0.00;;;26.30;73.10;;;;;;4910182;29;20040;-79
2022/08/16 01:52:03;;;;;;;0.28;0.00;;;26.10;70.90;;;;;;4906424;29;20028;-79
2022/08/16 01:54:31;;;;;;;1.27;0.00;;;26.20;71.00;;;;;;4915458;29;20517;-79
2022/08/16 01:56:59;;;;;;;0.00;0.00;;;26.40;70.90;;;;;;4911409;29;20502;-82
2022/08/16 01:59:28;;;;;;;0.00;0.00;;;25.70;70.40;;;;;;4902417;29;20036;-82
2022/08/16 02:01:56;;;;;;;0.05;0.00;;;25.90;72.20;;;;;;4905595;29;20096;-78
2022/08/16 02:04:24;;;;;;;0.43;0.00;;;26.00;70.80;;;;;;4909302;29;20063;-74
2022/08/16 02:06:52;;;;;;;0.00;0.00;;;26.00;70.70;;;;;;4906827;29;20505;-79
2022/08/16 02:09:22;;;;;;;0.00;0.00;;;26.40;71.00;;;;;;4906338;29;20048;-78
2022/08/16 02:11:54;;;;;;;0.15;0.00;;;26.20;70.20;;;;;;4904039;29;20774;-79
2022/08/16 02:14:25;;;;;;;0.00;0.00;;;25.40;68.90;;;;;;4910380;29;20029;-79
2022/08/16 02:16:53;;;;;;;0.00;0.00;;;25.50;69.90;;;;;;4904361;29;20459;-78
2022/08/16 02:19:20;;;;;;;0.00;0.00;;;25.50;70.50;;;;;;4910154;29;20068;-78
2022/08/16 02:21:56;;;;;;;0.52;0.00;;;25.50;67.50;;;;;;4907622;29;20399;-75
2022/08/16 02:24:23;;;;;;;;;;;25.40;67.80;;;;;;4905791;29;20136;-76
2022/08/16 02:26:51;;;;;;;0.00;0.00;;;25.20;68.40;;;;;;4893118;29;19939;-75
2022/08/16 02:29:19;;;;;;;0.00;0.00;;;25.30;67.10;;;;;;4907519;29;20024;-76
2022/08/16 02:31:49;;;;;;;0.03;0.00;;;25.20;69.10;;;;;;4893747;29;20475;-76
2022/08/16 02:34:18;;;;;;;0.00;0.00;;;25.00;67.40;;;;;;4907538;29;20043;-77
2022/08/16 02:36:46;;;;;;;0.20;0.05;;;24.80;68.60;;;;;;4902991;29;20111;-76
2022/08/16 02:39:15;;;;;;;2.58;0.65;;;24.40;68.00;;;;;;4913165;29;20123;-76
2022/08/16 02:41:44;;;;;;;1.55;0.00;;;24.60;70.90;;;;;;4913514;29;20041;-76
2022/08/16 02:44:13;;;;;;;0.00;0.00;;;25.00;69.40;;;;;;4905612;29;20025;-76
2022/08/16 02:46:42;;;;;;;0.13;0.00;;;25.20;69.60;;;;;;4907290;29;20040;-76
2022/08/16 02:49:10;;;;;;;0.00;0.00;;;25.20;67.90;;;;;;4911713;29;20033;-76
2022/08/16 02:51:39;;;;;;;0.00;0.00;;;24.80;68.00;;;;;;4907423;29;20044;-77
2022/08/16 02:54:08;;;;;;;0.30;0.03;;;24.80;69.70;;;;;;4903370;29;20031;-76
2022/08/16 02:56:35;;;;;;;0.05;0.00;;;25.20;70.70;;;;;;4912080;29;20431;-76
2022/08/16 02:59:03;;;;;;;0.00;0.00;;;25.10;67.10;;;;;;4915460;29;20055;-76
2022/08/16 03:01:32;;;;;;;0.22;0.00;;;25.00;67.90;;;;;;4910668;29;20063;-74
2022/08/16 03:04:02;;;;;;;0.28;0.00;;;25.00;68.70;;;;;;4905361;29;20024;-77
2022/08/16 03:06:30;;;;;;;0.00;0.00;;;25.10;67.10;;;;;;4904906;29;20055;-76
2022/08/16 03:08:58;;;;;;;0.00;0.00;;;25.20;67.20;;;;;;4912042;29;20479;-77
2022/08/16 03:11:27;;;;;;;0.20;0.00;;;25.30;68.30;;;;;;4909945;29;20032;-75
2022/08/16 03:13:55;;;;;;;0.00;0.00;;;25.40;67.50;;;;;;4907929;29;20557;-78
2022/08/16 03:16:24;;;;;;;0.00;0.00;;;25.10;67.30;;;;;;4910114;29;20044;-75
2022/08/16 03:18:52;;;;;;;0.00;0.00;;;25.00;67.50;;;;;;4908701;29;20038;-76
2022/08/16 03:21:20;;;;;;;0.00;0.00;;;25.10;69.70;;;;;;4903859;29;20483;-77
2022/08/16 03:23:47;;;;;;;0.20;0.00;;;24.80;69.50;;;;;;4886825;29;20028;-77
2022/08/16 03:26:15;;;;;;;0.57;0.57;;;24.30;69.40;;;;;;4896198;29;20023;-81
2022/08/16 03:28:43;;;;;;;0.03;0.00;;;24.50;68.80;;;;;;4908057;29;20439;-78
2022/08/16 03:31:11;;;;;;;0.85;0.00;;;24.60;69.00;;;;;;4903447;29;20043;-77
2022/08/16 03:33:38;;;;;;;0.00;0.00;;;24.80;69.70;;;;;;4911247;29;20190;-77
2022/08/16 03:36:06;;;;;;;0.30;0.10;;;24.40;69.70;;;;;;4911713;29;20025;-77
2022/08/16 03:38:35;;;;;;;3.90;1.42;;;24.10;68.00;;;;;;4905363;29;20032;-78
2022/08/16 03:41:04;;;;;;;6.45;2.20;;;23.90;68.10;;;;;;4894945;29;20493;-76
2022/08/16 03:43:33;;;;;;;1.02;0.20;;;23.60;69.70;;;;;;4907018;29;20039;-78
2022/08/16 03:46:01;;;;;;;0.28;0.10;;;23.40;70.20;;;;;;4910622;29;20399;-76
2022/08/16 03:48:37;;;;;;;0.28;0.00;;;23.30;70.30;;;;;;4911173;29;20436;-77
2022/08/16 03:51:11;;;;;;;1.55;0.00;;;23.00;69.50;;;;;;4910160;29;20027;-78
2022/08/16 03:53:39;;;;;;;0.13;0.10;;;22.90;69.60;;;;;;4907196;29;20364;-80
2022/08/16 03:56:07;;;;;;;0.55;0.17;;;22.90;69.60;;;;;;4908789;29;20379;-77
2022/08/16 03:58:35;;;;;;;0.10;0.00;;;22.50;70.00;;;;;;4914358;29;20119;-75
2022/08/16 04:01:04;;;;;;;0.10;0.00;;;22.00;70.30;;;;;;4902992;29;20044;-78
2022/08/16 04:03:32;;;;;;;0.73;0.20;;;21.50;71.00;;;;;;4903024;29;20398;-76
2022/08/16 04:06:00;;;;;;;1.65;0.43;;;20.90;71.20;;;;;;4912811;29;20038;-77
2022/08/16 04:08:30;;;;;;;0.45;0.00;;;20.70;71.10;;;;;;4910853;29;20395;-78
2022/08/16 04:10:58;;;;;;;1.65;0.00;;;20.50;71.60;;;;;;4912335;29;20615;-79
2022/08/16 04:13:26;;;;;;;2.13;0.40;;;20.20;73.40;;;;;;4911624;29;20153;-79
2022/08/16 04:15:54;;;;;;;2.50;1.08;;;20.50;73.20;;;;;;4910858;29;20028;-77
2022/08/16 04:18:22;;;;;;;5.60;2.45;;;20.90;71.90;;;;;;4907177;29;20040;-76
2022/08/16 04:20:50;;;;;;;0.93;0.20;;;21.00;71.60;;;;;;4905635;29;20047;-77
2022/08/16 04:23:17;;;;;;;3.83;1.60;;;21.10;70.90;;;;;;4905853;29;20047;-78
2022/08/16 04:25:45;;;;;;;8.70;5.22;;;21.00;71.40;;;;;;4903443;29;20049;-77
2022/08/16 04:28:12;;;;;;;2.10;1.48;;;20.90;71.50;;;;;;4906559;29;20035;-77
2022/08/16 04:30:40;;;;;;;0.60;0.50;;;20.90;71.70;;;;;;4906954;29;20107;-77
2022/08/16 04:33:10;;;;;;;0.60;0.10;;;20.90;71.80;;;;;;4907112;29;20032;-77
2022/08/16 04:35:38;;;;;;;0.50;0.10;;;20.90;72.10;;;;;;4906233;29;20037;-76
2022/08/16 04:38:05;;;;;;;0.77;0.50;;;20.90;73.10;;;;;;4902822;29;20039;-76
2022/08/16 04:40:33;;;;;;;0.22;0.10;;;21.00;73.60;;;;;;4899012;29;20040;-78
2022/08/16 04:43:00;;;;;;;1.45;0.22;;;20.90;72.30;;;;;;4899493;29;20412;-77
2022/08/16 04:45:28;;;;;;;0.10;0.00;;;20.80;72.50;;;;;;4903183;29;20547;-75
2022/08/16 04:47:55;;;;;;;0.95;0.00;;;20.70;72.30;;;;;;4909504;29;20028;-76
2022/08/16 04:50:26;;;;;;;0.55;0.10;;;20.70;72.50;;;;;;4907240;29;20036;-75
2022/08/16 04:52:55;;;;;;;1.38;0.08;;;20.70;72.80;;;;;;4906824;29;20394;-75
2022/08/16 04:55:25;;;;;;;0.15;0.00;;;20.80;73.40;;;;;;4906988;29;20043;-76
2022/08/16 04:57:54;;;;;;;2.63;0.50;;;20.80;71.90;;;;;;4902158;29;20047;-75
2022/08/16 05:00:25;;;;;;;0.43;0.10;;;20.90;72.50;;;;;;4909164;29;20097;-75
2022/08/16 05:02:54;;;;;;;0.00;0.00;;;20.80;72.00;;;;;;4888541;29;20024;-76
2022/08/16 05:05:22;;;;;;;0.00;0.00;;;20.70;72.80;;;;;;4911392;29;20490;-76
2022/08/16 05:07:50;;;;;;;0.10;0.00;;;20.60;72.90;;;;;;4908665;29;20040;-76
2022/08/16 05:10:18;;;;;;;0.98;0.10;;;20.50;73.50;;;;;;4911949;29;20083;-76
2022/08/16 05:12:45;;;;;;;0.38;0.10;;;20.40;74.10;;;;;;4904373;29;20507;-76
2022/08/16 05:15:13;;;;;;;0.10;0.00;;;20.40;74.20;;;;;;4918906;29;20164;-78
2022/08/16 05:17:41;;;;;;;0.65;0.03;;;20.20;74.10;;;;;;4903584;29;20130;-77
2022/08/16 05:20:10;;;;;;;0.13;0.00;;;20.10;74.80;;;;;;4913614;29;20051;-77
2022/08/16 05:22:39;;;;;;;1.60;0.90;;;19.90;74.90;;;;;;4909346;29;20115;-77
2022/08/16 05:25:08;;;;;;;0.22;0.00;;;19.60;75.10;;;;;;4907190;29;20032;-78
2022/08/16 05:27:36;;;;;;;0.03;0.00;;;19.40;75.20;;;;;;4900088;29;20039;-78
2022/08/16 05:30:05;;;;;;;3.15;0.10;;;19.20;76.40;;;;;;4906273;29;20040;-77
2022/08/16 05:32:33;;;;;;;0.10;0.08;;;19.10;76.50;;;;;;4909588;29;20087;-77
2022/08/16 05:35:01;;;;;;;0.85;0.10;;;19.00;76.70;;;;;;4913559;29;20044;-74
2022/08/16 05:37:28;;;;;;;0.10;0.10;;;18.90;76.50;;;;;;4907778;29;20028;-77
2022/08/16 05:39:55;;;;;;;0.00;0.00;;;18.80;76.90;;;;;;4908597;29;20124;-76
2022/08/16 05:42:23;;;;;;;0.47;0.30;;;18.90;76.30;;;;;;4907193;29;20036;-77
2022/08/16 05:44:50;;;;;;;0.00;0.00;;;18.80;77.00;;;;;;4912354;29;20040;-75
2022/08/16 05:47:17;;;;;;;0.30;0.30;;;18.70;76.40;;;;;;4904311;29;20025;-77
2022/08/16 05:49:45;;;;;;;0.00;0.00;;;18.70;76.80;;;;;;4916538;29;20051;-77
2022/08/16 05:52:12;;;;;;;0.10;0.10;;;18.60;76.60;;;;;;4904473;29;20053;-77
2022/08/16 05:54:41;;;;;;;0.45;0.10;;;18.70;76.60;;;;;;4899152;29;20037;-76
2022/08/16 05:57:10;;;;;;;1.27;0.28;;;18.90;76.90;;;;;;4910286;29;20039;-77
2022/08/16 05:59:37;;;;;;;1.20;0.10;;;19.10;76.90;;;;;;4909198;29;20043;-75
2022/08/16 06:02:06;;;;;;;0.13;0.10;;;19.30;76.40;;;;;;4907076;29;20028;-75
2022/08/16 06:04:33;;;;;;;1.48;0.20;;;19.30;75.60;;;;;;4911231;29;20040;-77
2022/08/16 06:07:04;;;;;;;3.50;0.10;;;19.40;76.10;;;;;;4905264;29;20055;-75
2022/08/16 06:09:32;;;;;;;0.52;0.00;;;19.40;75.80;;;;;;4884707;29;20159;-77
2022/08/16 06:12:00;;;;;;;2.70;0.10;;;19.10;76.30;;;;;;4908969;29;20152;-77
2022/08/16 06:14:29;;;;;;;0.98;0.10;;;18.80;77.10;;;;;;4906946;29;20115;-76
2022/08/16 06:16:56;;;;;;;0.10;0.10;;;18.60;77.70;;;;;;4910846;29;20391;-75
2022/08/16 06:19:24;;;;;;;0.20;0.10;;;18.30;78.50;;;;;;4909433;29;20072;-77
2022/08/16 06:21:51;;;;;;;0.00;0.00;;;18.20;79.40;;;;;;4911735;29;20040;-77
2022/08/16 06:24:19;;;;;;;0.32;0.10;;;18.10;79.10;;;;;;4911454;29;20119;-77
2022/08/16 06:26:46;;;;;;;0.70;0.10;;;18.00;79.20;;;;;;4908766;29;20483;-77
2022/08/16 06:29:13;;;;;;;1.45;0.10;;;18.00;79.80;;;;;;4917025;29;20040;-75
2022/08/16 06:31:41;;;;;;;0.30;0.00;;;18.00;80.10;;;;;;4905567;29;20560;-75
2022/08/16 06:34:08;;;;;;;0.30;0.08;;;17.90;79.60;;;;;;4908118;29;20032;-74
2022/08/16 06:36:36;;;;;;;0.17;0.00;;;18.00;80.20;;;;;;4911481;29;20172;-75
2022/08/16 06:39:03;;;;;;;0.17;0.00;;;18.00;79.90;;;;;;4905267;29;20676;-75
2022/08/16 06:41:31;;;;;;;1.45;0.03;;;18.10;80.10;;;;;;4904287;29;20040;-74
2022/08/16 06:43:58;;;;;;;0.22;0.10;;;18.00;80.00;;;;;;4903609;29;20523;-75
2022/08/16 06:46:35;;;;;;;0.20;0.10;;;18.00;80.40;;;;;;4906203;29;20036;-75
2022/08/16 06:49:04;;;;;;;0.52;0.40;;;18.00;81.10;;;;;;4896196;29;20039;-74
2022/08/16 06:51:32;;;;;;;0.32;0.13;;;18.00;81.00;;;;;;4906683;29;20100;-75
2022/08/16 06:54:00;;;;;;;0.52;0.10;;;17.90;81.10;;;;;;4901857;29;20225;-74
2022/08/16 06:56:27;;;;;;;0.32;0.08;;;18.00;80.90;;;;;;4901418;29;20104;-74
2022/08/16 06:58:55;;;;;;;1.95;0.08;;;18.00;81.20;;;;;;4908262;29;20179;-75
2022/08/16 07:01:23;;;;;;;0.32;0.10;;;18.00;80.80;;;;;;4911665;29;20092;-75
2022/08/16 07:03:51;;;;;;;0.57;0.10;;;17.90;81.10;;;;;;4910703;29;20388;-76
2022/08/16 07:06:21;;;;;;;1.23;0.15;;;17.80;81.40;;;;;;4908065;29;20039;-75
2022/08/16 07:08:48;;;;;;;0.13;0.10;;;17.70;81.80;;;;;;4898693;29;20067;-74
2022/08/16 07:11:19;;;;;;;0.10;0.00;;;17.50;82.10;;;;;;4910536;29;20068;-75
2022/08/16 07:13:49;;;;;;;0.40;0.15;;;17.30;83.10;;;;;;4919815;29;20028;-75
2022/08/16 07:16:17;;;;;;;1.45;0.32;;;17.20;83.40;;;;;;4906846;29;20071;-76
2022/08/16 07:18:45;;;;;;;0.32;0.22;;;17.00;83.70;;;;;;4913108;29;20024;-76
2022/08/16 07:21:14;;;;;;;1.85;0.30;;;17.00;84.00;;;;;;4881307;29;20365;-76
2022/08/16 07:23:44;;;;;;;0.30;0.10;;;16.90;84.40;;;;;;4908556;29;20029;-74
2022/08/16 07:26:19;;;;;;;1.30;0.10;;;16.70;84.30;;;;;;4913455;29;20036;-74
2022/08/16 07:28:47;;;;;;;1.13;0.35;;;16.60;84.70;;;;;;4915386;29;20036;-75
2022/08/16 07:31:16;;;;;;;0.77;0.47;;;16.40;84.90;;;;;;4913536;29;20483;-75
2022/08/16 07:33:44;;;;;;;0.45;0.20;;;16.30;85.20;;;;;;4911480;29;20036;-76
2022/08/16 07:36:13;;;;;;;2.03;0.30;;;16.20;85.60;;;;;;4899919;29;20099;-78
2022/08/16 07:38:42;;;;;;;0.60;0.20;;;16.00;86.30;;;;;;4902184;29;20035;-77
2022/08/16 07:41:10;;;;;;;2.08;0.50;;;15.90;86.30;;;;;;4902881;29;20060;-76
2022/08/16 07:43:37;;;;;;;1.90;0.52;;;15.80;86.90;;;;;;4902911;29;20028;-74
2022/08/16 07:46:05;;;;;;;2.67;0.95;;;15.70;87.20;;;;;;4901042;29;20095;-78
2022/08/16 07:48:32;;;;;;;1.98;0.32;;;15.60;87.70;;;;;;4902298;29;20036;-76
2022/08/16 07:51:00;;;;;;;1.38;0.40;;;15.50;87.70;;;;;;4902559;29;20460;-78
2022/08/16 07:53:30;;;;;;;2.35;0.50;;;15.40;87.80;;;;;;4899371;29;20044;-79
2022/08/16 07:55:59;;;;;;;1.55;0.80;;;15.30;88.40;;;;;;4902622;29;20720;-79
2022/08/16 07:58:28;;;;;;;2.35;0.60;;;15.30;88.90;;;;;;4903172;29;20063;-77
2022/08/16 08:00:56;;;;;;;1.85;1.50;;;15.20;89.30;;;;;;4905203;29;20036;-78
2022/08/16 08:03:24;;;;;;;1.52;1.00;;;15.10;89.90;;;;;;4900580;29;20036;-78
2022/08/16 08:05:51;;;;;;;2.22;1.00;;;15.10;89.80;;;;;;4902091;29;20028;-78
2022/08/16 08:08:19;;;;;;;2.45;0.60;;;15.00;89.80;;;;;;4904213;29;20129;-77
2022/08/16 08:10:46;;;;;;;1.25;0.50;;;15.00;90.10;;;;;;4909553;29;20477;-77
2022/08/16 08:13:15;;;;;;;1.33;0.50;;;15.10;90.10;;;;;;4907516;29;20035;-76
2022/08/16 08:15:44;;;;;;;1.63;0.40;;;15.10;90.10;;;;;;4905528;29;20039;-76
2022/08/16 08:18:12;;;;;;;0.57;0.30;;;15.00;90.20;;;;;;4902874;29;20036;-79
2022/08/16 08:20:43;;;;;;;3.47;0.60;;;15.00;90.00;;;;;;4899206;29;20036;-75
2022/08/16 08:23:13;;;;;;;2.50;0.40;;;15.00;90.30;;;;;;4900325;29;20032;-77
2022/08/16 08:25:43;;;;;;;1.08;0.30;;;15.00;90.20;;;;;;4905805;29;20090;-76
2022/08/16 08:28:10;;;;;;;2.05;0.82;;;14.90;90.30;;;;;;4900761;29;20171;-77
2022/08/16 08:30:38;;;;;;;1.85;0.40;;;14.90;90.60;;;;;;4909691;29;20478;-76
2022/08/16 08:33:05;;;;;;;0.82;0.45;;;14.80;90.80;;;;;;4913189;29;20031;-76
2022/08/16 08:35:33;;;;;;;0.90;0.30;;;14.70;90.70;;;;;;4908421;29;20100;-77
2022/08/16 08:38:02;;;;;;;1.05;0.50;;;14.60;90.90;;;;;;4898606;29;20143;-75
2022/08/16 08:40:30;;;;;;;2.13;0.82;;;14.60;91.00;;;;;;4901715;29;20056;-75
2022/08/16 08:42:59;;;;;;;1.00;0.80;;;14.50;91.00;;;;;;4902806;29;20095;-77
2022/08/16 08:45:27;;;;;;;5.47;1.05;;;14.50;91.10;;;;;;4902163;29;20032;-77
2022/08/16 08:47:55;;;;;;;1.35;0.50;;;14.40;91.30;;;;;;4900450;29;20167;-77
2022/08/16 08:50:26;;;;;;;2.55;0.40;;;14.40;91.30;;;;;;4901667;29;20038;-76
2022/08/16 08:52:54;;;;;;;0.98;0.20;;;14.30;91.50;;;;;;4898202;29;20533;-75
2022/08/16 08:55:22;;;;;;;0.50;0.20;;;14.20;91.50;;;;;;4908055;29;20175;-76
2022/08/16 08:57:51;;;;;;;0.68;0.47;;;14.10;91.50;;;;;;4903388;29;20507;-77
2022/08/16 09:00:21;;;;;;;0.43;0.30;;;14.10;91.50;;;;;;4904071;29;20044;-76
2022/08/16 09:02:52;;;;;;;0.45;0.20;;;14.00;91.60;;;;;;4905441;29;20056;-77
2022/08/16 09:05:25;;;;;;;0.20;0.17;;;13.90;91.50;;;;;;4909236;29;20024;-75
2022/08/16 09:07:52;;;;;;;0.47;0.10;;;13.90;91.90;;;;;;4900313;29;20036;-75
2022/08/16 09:10:21;;;;;;;0.60;0.20;;;13.80;91.80;;;;;;4908045;29;20433;-75
2022/08/16 09:12:49;;;;;;;0.32;0.10;;;13.80;91.80;;;;;;4907204;29;20517;-75
2022/08/16 09:15:18;;;;;;;0.30;0.10;;;13.70;91.90;;;;;;4909877;29;20039;-75
2022/08/16 09:17:46;;;;;;;1.85;0.20;;;13.70;92.00;;;;;;4904158;29;20035;-75
2022/08/16 09:20:14;;;;;;;0.17;0.10;;;13.60;92.10;;;;;;4900835;29;20500;-76
2022/08/16 09:22:42;;;;;;;0.43;0.10;;;13.50;92.10;;;;;;4906871;29;20020;-78
2022/08/16 09:25:11;;;;;;;0.22;0.10;;;13.40;92.40;;;;;;4888361;29;20502;-74
2022/08/16 09:27:38;;;;;;;0.68;0.10;;;13.40;92.40;;;;;;4898067;29;20045;-76
2022/08/16 09:30:07;;;;;;;1.45;0.20;;;13.40;92.50;;;;;;4906464;29;20035;-76
2022/08/16 09:32:35;;;;;;;0.52;0.20;;;13.30;92.60;;;;;;4905053;29;20095;-76
2022/08/16 09:35:04;;;;;;;0.50;0.22;;;13.30;92.90;;;;;;4909562;29;20032;-73
2022/08/16 09:37:33;;;;;;;0.38;0.15;;;13.20;93.00;;;;;;4906199;29;20035;-75
2022/08/16 09:40:02;;;;;;;1.08;0.10;;;13.10;93.10;;;;;;4906049;29;20048;-74
2022/08/16 09:42:30;;;;;;;0.40;0.20;;;13.00;93.30;;;;;;4882292;29;20032;-73
2022/08/16 09:44:58;;;;;;;2.17;0.10;;;13.00;93.50;;;;;;4905438;29;20632;-75
2022/08/16 09:47:26;;;;;;;0.85;0.50;;;13.00;93.70;;;;;;4901625;29;20040;-75
2022/08/16 09:49:54;;;;;;;1.30;0.60;;;12.90;93.70;;;;;;4898760;29;20107;-77
2022/08/16 09:52:21;;;;;;;1.70;0.43;;;12.90;93.70;;;;;;4908523;29;20067;-76
2022/08/16 09:54:49;;;;;;;1.13;0.50;;;12.80;93.90;;;;;;4909297;29;20043;-76
2022/08/16 09:57:16;;;;;;;0.88;0.30;;;12.80;94.00;;;;;;4913943;29;20028;-76
2022/08/16 09:59:43;;;;;;;0.95;0.40;;;12.80;94.00;;;;;;4911618;29;20043;-78
2022/08/16 10:02:11;;;;;;;0.50;0.30;;;12.80;94.00;;;;;;4911496;29;20487;-76
2022/08/16 10:04:38;;;;;;;0.30;0.20;;;12.80;94.20;;;;;;4906031;29;20054;-76
2022/08/16 10:07:06;;;;;;;0.73;0.30;;;12.70;94.30;;;;;;4904630;29;20036;-76
2022/08/16 10:09:34;;;;;;;0.60;0.35;;;12.70;94.30;;;;;;4907880;29;20055;-75
2022/08/16 10:14:49;;;;;;;0.85;0.30;;;12.60;94.50;;;;;;4900394;29;20083;-76
2022/08/16 10:17:16;;;;;;;0.70;0.30;;;12.60;94.70;;;;;;4900681;29;20040;-75
2022/08/16 10:19:45;;;;;;;0.45;0.25;;;12.60;94.70;;;;;;4901790;29;20110;-75
2022/08/16 10:22:13;;;;;;;0.75;0.52;;;12.60;94.70;;;;;;4900111;29;20125;-76
2022/08/16 10:24:41;;;;;;;0.10;0.10;;;12.50;94.80;;;;;;4902355;29;20116;-75
2022/08/16 10:27:10;;;;;;;1.08;0.20;;;12.50;94.90;;;;;;4904474;29;20103;-76
2022/08/16 10:29:39;;;;;;;2.95;0.15;;;12.50;95.00;;;;;;4905291;29;20052;-75
2022/08/16 10:32:07;;;;;;;0.30;0.20;;;12.50;95.10;;;;;;4899743;29;20136;-75
2022/08/16 10:34:34;;;;;;;0.28;0.20;;;12.40;95.10;;;;;;4901568;29;20100;-76
2022/08/16 10:37:02;;;;;;;0.90;0.30;;;12.40;95.10;;;;;;4897569;29;20557;-75
2022/08/16 10:39:30;;;;;;;0.70;0.20;;;12.40;95.20;;;;;;4904011;29;20448;-74
2022/08/16 10:42:02;;;;;;;0.15;0.13;;;12.30;95.20;;;;;;4902623;29;20896;-76
2022/08/16 10:44:29;;;;;;;0.10;0.10;;;12.30;95.40;;;;;;4902410;29;20020;-75
2022/08/16 10:46:57;;;;;;;0.10;0.10;;;12.30;95.40;;;;;;4901707;29;20035;-75
2022/08/16 10:49:25;;;;;;;2.05;0.20;;;12.30;95.50;;;;;;4899865;29;20052;-75
2022/08/16 10:51:54;;;;;;;1.13;0.10;;;12.20;95.50;;;;;;4904756;29;20036;-78
2022/08/16 10:54:22;;;;;;;0.38;0.10;;;12.20;95.50;;;;;;4904450;29;20031;-75
2022/08/16 10:56:52;;;;;;;0.10;0.10;;;12.10;95.80;;;;;;4903033;29;20040;-77
2022/08/16 10:59:20;;;;;;;0.10;0.10;;;12.10;95.80;;;;;;4901637;29;20032;-79
2022/08/16 11:01:48;;;;;;;0.40;0.10;;;12.10;95.80;;;;;;4899927;29;20068;-74
2022/08/16 11:04:15;;;;;;;0.28;0.17;;;12.00;95.90;;;;;;4902493;29;20558;-78
2022/08/16 11:06:43;;;;;;;0.90;0.45;;;11.90;95.90;;;;;;4903445;29;20036;-77
2022/08/16 11:09:10;;;;;;;0.30;0.15;;;11.90;96.10;;;;;;4905905;29;20056;-79
2022/08/16 11:11:38;;;;;;;0.20;0.10;;;11.80;96.20;;;;;;4905405;29;20059;-77
2022/08/16 11:14:06;;;;;;;0.43;0.10;;;11.80;96.40;;;;;;4907959;29;20214;-78
2022/08/16 11:16:33;;;;;;;1.45;0.30;;;11.70;96.60;;;;;;4886793;29;20028;-75
2022/08/16 11:19:03;;;;;;;0.15;0.10;;;11.70;96.70;;;;;;4901634;29;20036;-76
2022/08/16 11:21:30;;;;;;;0.17;0.10;;;11.60;96.80;;;;;;4902638;29;20094;-77
2022/08/16 11:23:58;;;;;;;0.00;0.00;;;11.60;97.00;;;;;;4896967;29;20460;-75
2022/08/16 11:26:26;;;;;;;0.00;0.00;;;11.50;97.10;;;;;;4898724;29;20475;-73
2022/08/16 11:28:56;;;;;;;0.10;0.10;;;11.40;97.30;;;;;;4898492;29;20059;-75
2022/08/16 11:31:26;;;;;;;0.30;0.10;;;11.30;97.50;;;;;;4897964;29;20067;-75
2022/08/16 11:33:53;;;;;;;1.55;0.20;;;11.20;97.60;;;;;;4901706;29;20036;-73
2022/08/16 11:36:22;;;;;;;0.40;0.15;;;11.20;97.60;;;;;;4901262;29;20209;-74
2022/08/16 11:38:49;;;;;;;1.50;0.70;;;11.10;97.90;;;;;;4907378;29;20032;-75
2022/08/16 11:41:17;;;;;;;0.52;0.20;;;11.00;98.00;;;;;;4901824;29;20047;-75
2022/08/16 11:43:45;;;;;;;0.98;0.75;;;11.00;98.10;;;;;;4903290;29;20032;-75
2022/08/16 11:46:16;;;;;;;1.02;0.25;;;10.90;98.20;;;;;;4901216;29;20494;-74
2022/08/16 11:48:47;;;;;;;0.95;0.47;;;10.80;98.30;;;;;;4900136;29;20025;-76
2022/08/16 11:51:14;;;;;;;0.38;0.20;;;10.80;98.40;;;;;;4900779;29;20111;-77
2022/08/16 11:53:42;;;;;;;0.25;0.20;;;10.70;98.40;;;;;;4899790;29;20107;-76
2022/08/16 11:56:09;;;;;;;0.65;0.45;;;10.60;98.80;;;;;;4899162;29;20102;-75
2022/08/16 11:58:38;;;;;;;1.05;0.50;;;10.50;98.90;;;;;;4899912;29;20024;-74
2022/08/16 12:01:06;;;;;;;4.70;1.60;;;10.50;99.10;;;;;;4900229;29;20039;-78
2022/08/16 12:03:34;;;;;;;1.33;1.08;;;10.50;99.50;;;;;;4899716;29;20494;-76
2022/08/16 12:06:10;;;;;;;2.05;0.60;;;10.40;99.60;;;;;;4896450;29;20039;-78
2022/08/16 12:08:38;;;;;;;3.28;0.70;;;10.40;99.60;;;;;;4900462;29;20068;-75
2022/08/16 12:11:07;;;;;;;2.28;1.00;;;10.30;99.90;;;;;;4902137;29;20468;-75
2022/08/16 12:13:34;;;;;;;1.02;0.52;;;10.30;99.90;;;;;;4904895;29;20095;-75
2022/08/16 12:16:03;;;;;;;2.65;0.70;;;10.30;99.90;;;;;;4899898;29;20039;-76
2022/08/16 12:18:31;;;;;;;2.22;0.55;;;10.30;99.90;;;;;;4895666;29;20490;-76
2022/08/16 12:20:58;;;;;;;0.93;0.30;;;10.30;99.90;;;;;;4901568;29;20104;-77
2022/08/16 12:23:26;;;;;;;0.10;0.10;;;10.40;99.90;;;;;;4901149;29;20028;-76
2022/08/16 12:25:53;;;;;;;0.10;0.10;;;10.50;99.90;;;;;;4898904;29;20486;-78
2022/08/16 12:28:21;;;;;;;1.23;0.20;;;10.50;99.90;;;;;;4885022;29;20029;-74
2022/08/16 12:30:49;;;;;;;1.13;0.20;;;10.60;99.90;;;;;;4897299;29;20059;-74
2022/08/16 12:33:17;;;;;;;0.30;0.20;;;10.60;99.90;;;;;;4896030;29;20036;-74
2022/08/16 12:35:47;;;;;;;1.30;0.10;;;10.60;99.90;;;;;;4898023;29;20126;-75
2022/08/16 12:38:15;;;;;;;0.30;0.20;;;10.60;99.90;;;;;;4901066;29;20028;-76
2022/08/16 12:40:49;;;;;;;0.88;0.20;;;10.60;99.90;;;;;;4900272;29;20039;-76
2022/08/16 12:43:20;;;;;;;0.70;0.50;;;10.60;99.90;;;;;;4906391;29;20106;-74
2022/08/16 12:45:51;;;;;;;1.15;0.47;;;10.60;99.90;;;;;;4906055;29;20039;-75
2022/08/16 12:51:12;;;;;;;1.70;0.60;;;10.60;99.90;;;;;;4888666;29;20107;-76
2022/08/16 12:53:41;;;;;;;2.38;0.93;;;10.50;99.90;;;;;;4911049;29;20038;-75
2022/08/16 12:56:10;;;;;;;1.23;0.80;;;10.50;99.90;;;;;;4907336;29;20068;-76
2022/08/16 12:58:41;;;;;;;2.30;1.20;;;10.50;99.90;;;;;;4908035;29;20501;-75
2022/08/16 13:01:08;;;;;;;7.60;1.50;;;10.40;99.90;;;;;;4903485;29;20052;-75